sensor_id;sensor_type;location;lat;lon;timestamp;P1;durP1;ratioP1;P2;durP2;ratioP2
35114;SDS011;21292;52.416;13.046;2022-08-04T00:01:39;5.40;;;3.38;;
35114;SDS011;21292;52.416;13.046;2022-08-04T00:04:11;5.13;;;3.38;;
35114;SDS011;21292;52.416;13.046;2022-08-04T00:06:45;5.00;;;3.92;;
35114;SDS011;21292;52.416;13.046;2022-08-04T00:09:21;12.95;;;4.07;;
35114;SDS011;21292;52.416;13.046;2022-08-04T00:11:53;7.25;;;3.65;;
35114;SDS011;21292;52.416;13.046;2022-08-04T00:14:24;5.15;;;3.90;;
35114;SDS011;21292;52.416;13.046;2022-08-04T00:16:53;5.60;;;3.58;;
35114;SDS011;21292;52.416;13.046;2022-08-04T00:19:22;4.75;;;3.58;;
35114;SDS011;21292;52.416;13.046;2022-08-04T00:21:54;5.90;;;5.23;;
35114;SDS011;21292;52.416;13.046;2022-08-04T00:24:24;6.15;;;4.07;;
35114;SDS011;21292;52.416;13.046;2022-08-04T00:26:52;6.30;;;4.75;;
35114;SDS011;21292;52.416;13.046;2022-08-04T00:29:21;5.45;;;3.80;;
35114;SDS011;21292;52.416;13.046;2022-08-04T00:31:49;10.57;;;4.45;;
35114;SDS011;21292;52.416;13.046;2022-08-04T00:34:23;6.15;;;4.35;;
35114;SDS011;21292;52.416;13.046;2022-08-04T00:36:53;4.45;;;4.10;;
35114;SDS011;21292;52.416;13.046;2022-08-04T00:39:22;8.80;;;4.00;;
35114;SDS011;21292;52.416;13.046;2022-08-04T00:44:52;8.48;;;4.00;;
35114;SDS011;21292;52.416;13.046;2022-08-04T00:47:31;6.47;;;4.22;;
35114;SDS011;21292;52.416;13.046;2022-08-04T00:50:07;4.47;;;4.07;;
35114;SDS011;21292;52.416;13.046;2022-08-04T00:52:40;4.63;;;4.22;;
35114;SDS011;21292;52.416;13.046;2022-08-04T00:55:20;6.22;;;4.43;;
35114;SDS011;21292;52.416;13.046;2022-08-04T00:58:08;5.13;;;4.63;;
35114;SDS011;21292;52.416;13.046;2022-08-04T01:00:47;5.25;;;4.43;;
35114;SDS011;21292;52.416;13.046;2022-08-04T01:03:22;9.05;;;4.38;;
35114;SDS011;21292;52.416;13.046;2022-08-04T01:05:56;4.72;;;4.22;;
35114;SDS011;21292;52.416;13.046;2022-08-04T01:08:34;6.97;;;4.28;;
35114;SDS011;21292;52.416;13.046;2022-08-04T01:11:14;5.32;;;4.63;;
35114;SDS011;21292;52.416;13.046;2022-08-04T01:13:54;4.47;;;4.03;;
35114;SDS011;21292;52.416;13.046;2022-08-04T01:16:27;6.80;;;4.38;;
35114;SDS011;21292;52.416;13.046;2022-08-04T01:18:58;6.82;;;5.10;;
35114;SDS011;21292;52.416;13.046;2022-08-04T01:24:44;7.80;;;4.50;;
35114;SDS011;21292;52.416;13.046;2022-08-04T01:27:22;7.85;;;4.45;;
35114;SDS011;21292;52.416;13.046;2022-08-04T01:29:58;7.10;;;4.40;;
35114;SDS011;21292;52.416;13.046;2022-08-04T01:32:29;8.00;;;4.72;;
35114;SDS011;21292;52.416;13.046;2022-08-04T01:35:00;8.73;;;5.00;;
35114;SDS011;21292;52.416;13.046;2022-08-04T01:37:36;6.77;;;4.50;;
35114;SDS011;21292;52.416;13.046;2022-08-04T01:42:42;5.43;;;4.78;;
35114;SDS011;21292;52.416;13.046;2022-08-04T01:45:13;6.85;;;4.95;;
35114;SDS011;21292;52.416;13.046;2022-08-04T01:47:47;5.60;;;4.55;;
35114;SDS011;21292;52.416;13.046;2022-08-04T01:50:16;6.40;;;4.22;;
35114;SDS011;21292;52.416;13.046;2022-08-04T01:52:44;12.32;;;4.30;;
35114;SDS011;21292;52.416;13.046;2022-08-04T01:55:17;6.38;;;5.10;;
35114;SDS011;21292;52.416;13.046;2022-08-04T01:57:46;7.93;;;5.00;;
35114;SDS011;21292;52.416;13.046;2022-08-04T02:00:17;8.25;;;4.45;;
35114;SDS011;21292;52.416;13.046;2022-08-04T02:02:46;5.18;;;3.88;;
35114;SDS011;21292;52.416;13.046;2022-08-04T02:05:17;5.88;;;4.50;;
35114;SDS011;21292;52.416;13.046;2022-08-04T02:07:54;8.38;;;4.95;;
35114;SDS011;21292;52.416;13.046;2022-08-04T02:10:29;9.10;;;4.40;;
35114;SDS011;21292;52.416;13.046;2022-08-04T02:13:06;7.63;;;4.65;;
35114;SDS011;21292;52.416;13.046;2022-08-04T02:15:41;6.00;;;4.40;;
35114;SDS011;21292;52.416;13.046;2022-08-04T02:18:15;6.07;;;4.13;;
35114;SDS011;21292;52.416;13.046;2022-08-04T02:20:50;5.43;;;4.50;;
35114;SDS011;21292;52.416;13.046;2022-08-04T02:23:25;7.47;;;4.90;;
35114;SDS011;21292;52.416;13.046;2022-08-04T02:25:57;8.65;;;5.43;;
35114;SDS011;21292;52.416;13.046;2022-08-04T02:28:29;5.97;;;5.20;;
35114;SDS011;21292;52.416;13.046;2022-08-04T02:31:04;5.25;;;4.75;;
35114;SDS011;21292;52.416;13.046;2022-08-04T02:33:36;5.57;;;4.47;;
35114;SDS011;21292;52.416;13.046;2022-08-04T02:36:05;5.35;;;4.85;;
35114;SDS011;21292;52.416;13.046;2022-08-04T02:38:41;6.22;;;5.15;;
35114;SDS011;21292;52.416;13.046;2022-08-04T02:41:18;7.65;;;5.20;;
35114;SDS011;21292;52.416;13.046;2022-08-04T02:43:49;5.53;;;4.97;;
35114;SDS011;21292;52.416;13.046;2022-08-04T02:46:20;5.82;;;5.25;;
35114;SDS011;21292;52.416;13.046;2022-08-04T02:48:49;6.82;;;4.75;;
35114;SDS011;21292;52.416;13.046;2022-08-04T02:51:20;5.63;;;5.10;;
35114;SDS011;21292;52.416;13.046;2022-08-04T02:53:51;6.53;;;5.82;;
35114;SDS011;21292;52.416;13.046;2022-08-04T02:56:21;9.25;;;6.43;;
35114;SDS011;21292;52.416;13.046;2022-08-04T02:58:51;7.40;;;5.35;;
35114;SDS011;21292;52.416;13.046;2022-08-04T03:01:21;6.85;;;4.93;;
35114;SDS011;21292;52.416;13.046;2022-08-04T03:03:52;8.13;;;5.53;;
35114;SDS011;21292;52.416;13.046;2022-08-04T03:06:38;9.25;;;5.18;;
35114;SDS011;21292;52.416;13.046;2022-08-04T03:12:55;6.45;;;5.75;;
35114;SDS011;21292;52.416;13.046;2022-08-04T03:15:42;9.70;;;5.80;;
35114;SDS011;21292;52.416;13.046;2022-08-04T03:18:30;22.48;;;5.70;;
35114;SDS011;21292;52.416;13.046;2022-08-04T03:21:32;7.78;;;5.68;;
35114;SDS011;21292;52.416;13.046;2022-08-04T03:24:34;10.50;;;5.38;;
35114;SDS011;21292;52.416;13.046;2022-08-04T03:27:25;6.35;;;5.30;;
35114;SDS011;21292;52.416;13.046;2022-08-04T03:30:05;6.50;;;5.95;;
35114;SDS011;21292;52.416;13.046;2022-08-04T03:35:44;6.95;;;6.25;;
35114;SDS011;21292;52.416;13.046;2022-08-04T03:38:31;8.13;;;5.43;;
35114;SDS011;21292;52.416;13.046;2022-08-04T03:41:28;9.32;;;5.75;;
35114;SDS011;21292;52.416;13.046;2022-08-04T03:44:31;6.80;;;5.80;;
35114;SDS011;21292;52.416;13.046;2022-08-04T03:47:17;6.68;;;5.97;;
35114;SDS011;21292;52.416;13.046;2022-08-04T03:50:00;8.15;;;5.53;;
35114;SDS011;21292;52.416;13.046;2022-08-04T03:55:44;12.15;;;5.88;;
35114;SDS011;21292;52.416;13.046;2022-08-04T03:58:19;10.93;;;6.13;;
35114;SDS011;21292;52.416;13.046;2022-08-04T04:01:03;5.88;;;5.30;;
35114;SDS011;21292;52.416;13.046;2022-08-04T04:03:46;8.05;;;5.72;;
35114;SDS011;21292;52.416;13.046;2022-08-04T04:09:48;9.27;;;5.63;;
35114;SDS011;21292;52.416;13.046;2022-08-04T04:12:37;8.15;;;5.63;;
35114;SDS011;21292;52.416;13.046;2022-08-04T04:15:23;6.50;;;5.90;;
35114;SDS011;21292;52.416;13.046;2022-08-04T04:21:09;7.18;;;5.20;;
35114;SDS011;21292;52.416;13.046;2022-08-04T04:24:02;8.35;;;5.65;;
35114;SDS011;21292;52.416;13.046;2022-08-04T04:26:48;7.40;;;5.80;;
35114;SDS011;21292;52.416;13.046;2022-08-04T04:29:27;8.15;;;5.90;;
35114;SDS011;21292;52.416;13.046;2022-08-04T04:32:02;8.23;;;6.15;;
35114;SDS011;21292;52.416;13.046;2022-08-04T04:34:38;9.15;;;5.82;;
35114;SDS011;21292;52.416;13.046;2022-08-04T04:37:25;6.18;;;5.57;;
35114;SDS011;21292;52.416;13.046;2022-08-04T04:40:17;9.27;;;6.05;;
35114;SDS011;21292;52.416;13.046;2022-08-04T04:42:56;10.55;;;5.78;;
35114;SDS011;21292;52.416;13.046;2022-08-04T04:45:41;9.15;;;5.53;;
35114;SDS011;21292;52.416;13.046;2022-08-04T04:48:18;9.00;;;5.55;;
35114;SDS011;21292;52.416;13.046;2022-08-04T04:50:57;9.88;;;6.00;;
35114;SDS011;21292;52.416;13.046;2022-08-04T04:53:35;10.30;;;5.85;;
35114;SDS011;21292;52.416;13.046;2022-08-04T04:56:11;7.93;;;5.28;;
35114;SDS011;21292;52.416;13.046;2022-08-04T04:58:44;8.13;;;6.00;;
35114;SDS011;21292;52.416;13.046;2022-08-04T05:01:24;6.78;;;5.55;;
35114;SDS011;21292;52.416;13.046;2022-08-04T05:04:27;9.13;;;5.57;;
35114;SDS011;21292;52.416;13.046;2022-08-04T05:07:20;10.40;;;6.32;;
35114;SDS011;21292;52.416;13.046;2022-08-04T05:10:02;7.40;;;5.63;;
35114;SDS011;21292;52.416;13.046;2022-08-04T05:12:37;8.85;;;5.78;;
35114;SDS011;21292;52.416;13.046;2022-08-04T05:15:39;10.15;;;6.10;;
35114;SDS011;21292;52.416;13.046;2022-08-04T05:18:10;9.02;;;5.93;;
35114;SDS011;21292;52.416;13.046;2022-08-04T05:20:42;7.63;;;5.97;;
35114;SDS011;21292;52.416;13.046;2022-08-04T05:23:13;9.50;;;6.25;;
35114;SDS011;21292;52.416;13.046;2022-08-04T05:25:45;11.38;;;7.38;;
35114;SDS011;21292;52.416;13.046;2022-08-04T05:28:26;11.50;;;7.32;;
35114;SDS011;21292;52.416;13.046;2022-08-04T05:30:57;12.35;;;8.40;;
35114;SDS011;21292;52.416;13.046;2022-08-04T05:33:28;13.45;;;8.13;;
35114;SDS011;21292;52.416;13.046;2022-08-04T05:36:02;14.98;;;12.85;;
35114;SDS011;21292;52.416;13.046;2022-08-04T05:38:53;17.70;;;15.82;;
35114;SDS011;21292;52.416;13.046;2022-08-04T05:41:25;14.93;;;13.43;;
35114;SDS011;21292;52.416;13.046;2022-08-04T05:44:12;14.50;;;13.00;;
35114;SDS011;21292;52.416;13.046;2022-08-04T05:46:42;12.88;;;11.40;;
35114;SDS011;21292;52.416;13.046;2022-08-04T05:49:19;10.07;;;9.05;;
35114;SDS011;21292;52.416;13.046;2022-08-04T05:51:48;12.73;;;9.18;;
35114;SDS011;21292;52.416;13.046;2022-08-04T05:54:17;13.30;;;9.00;;
35114;SDS011;21292;52.416;13.046;2022-08-04T05:56:47;14.45;;;8.15;;
35114;SDS011;21292;52.416;13.046;2022-08-04T05:59:16;13.60;;;8.10;;
35114;SDS011;21292;52.416;13.046;2022-08-04T06:01:47;10.07;;;7.82;;
35114;SDS011;21292;52.416;13.046;2022-08-04T06:04:23;18.52;;;7.75;;
35114;SDS011;21292;52.416;13.046;2022-08-04T06:06:54;12.77;;;8.57;;
35114;SDS011;21292;52.416;13.046;2022-08-04T06:09:23;8.57;;;7.25;;
35114;SDS011;21292;52.416;13.046;2022-08-04T06:11:51;13.90;;;7.93;;
35114;SDS011;21292;52.416;13.046;2022-08-04T06:14:31;10.32;;;6.43;;
35114;SDS011;21292;52.416;13.046;2022-08-04T06:17:03;11.55;;;7.43;;
35114;SDS011;21292;52.416;13.046;2022-08-04T06:19:52;14.35;;;8.23;;
35114;SDS011;21292;52.416;13.046;2022-08-04T06:22:41;11.63;;;7.15;;
35114;SDS011;21292;52.416;13.046;2022-08-04T06:25:11;8.73;;;7.60;;
35114;SDS011;21292;52.416;13.046;2022-08-04T06:27:42;13.40;;;7.33;;
35114;SDS011;21292;52.416;13.046;2022-08-04T06:30:10;11.38;;;7.18;;
35114;SDS011;21292;52.416;13.046;2022-08-04T06:32:41;12.52;;;6.22;;
35114;SDS011;21292;52.416;13.046;2022-08-04T06:35:14;14.80;;;6.28;;
35114;SDS011;21292;52.416;13.046;2022-08-04T06:37:44;11.85;;;6.35;;
35114;SDS011;21292;52.416;13.046;2022-08-04T06:40:14;9.77;;;5.85;;
35114;SDS011;21292;52.416;13.046;2022-08-04T06:42:57;10.80;;;5.47;;
35114;SDS011;21292;52.416;13.046;2022-08-04T06:45:26;10.65;;;5.60;;
35114;SDS011;21292;52.416;13.046;2022-08-04T06:47:56;6.07;;;5.05;;
35114;SDS011;21292;52.416;13.046;2022-08-04T06:50:25;6.43;;;4.97;;
35114;SDS011;21292;52.416;13.046;2022-08-04T06:53:13;6.57;;;4.68;;
35114;SDS011;21292;52.416;13.046;2022-08-04T06:55:42;9.90;;;4.85;;
35114;SDS011;21292;52.416;13.046;2022-08-04T06:58:12;8.50;;;4.90;;
35114;SDS011;21292;52.416;13.046;2022-08-04T07:00:41;8.77;;;4.70;;
35114;SDS011;21292;52.416;13.046;2022-08-04T07:03:11;8.13;;;4.07;;
35114;SDS011;21292;52.416;13.046;2022-08-04T07:05:40;7.57;;;4.35;;
35114;SDS011;21292;52.416;13.046;2022-08-04T07:08:09;8.20;;;3.90;;
35114;SDS011;21292;52.416;13.046;2022-08-04T07:10:37;10.60;;;4.50;;
35114;SDS011;21292;52.416;13.046;2022-08-04T07:13:05;8.13;;;4.65;;
35114;SDS011;21292;52.416;13.046;2022-08-04T07:15:35;6.47;;;4.38;;
35114;SDS011;21292;52.416;13.046;2022-08-04T07:18:06;12.13;;;4.05;;
35114;SDS011;21292;52.416;13.046;2022-08-04T07:20:35;8.38;;;4.10;;
35114;SDS011;21292;52.416;13.046;2022-08-04T07:23:07;8.60;;;4.22;;
35114;SDS011;21292;52.416;13.046;2022-08-04T07:25:37;7.40;;;4.82;;
35114;SDS011;21292;52.416;13.046;2022-08-04T07:28:25;6.93;;;4.32;;
35114;SDS011;21292;52.416;13.046;2022-08-04T07:30:55;8.02;;;4.13;;
35114;SDS011;21292;52.416;13.046;2022-08-04T07:33:24;8.68;;;4.18;;
35114;SDS011;21292;52.416;13.046;2022-08-04T07:35:54;6.68;;;3.63;;
35114;SDS011;21292;52.416;13.046;2022-08-04T07:38:37;5.97;;;3.78;;
35114;SDS011;21292;52.416;13.046;2022-08-04T07:41:19;9.73;;;3.90;;
35114;SDS011;21292;52.416;13.046;2022-08-04T07:44:04;8.38;;;4.30;;
35114;SDS011;21292;52.416;13.046;2022-08-04T07:46:33;6.60;;;3.83;;
35114;SDS011;21292;52.416;13.046;2022-08-04T07:49:02;7.35;;;3.92;;
35114;SDS011;21292;52.416;13.046;2022-08-04T07:51:32;9.80;;;4.13;;
35114;SDS011;21292;52.416;13.046;2022-08-04T07:54:01;6.50;;;3.88;;
35114;SDS011;21292;52.416;13.046;2022-08-04T07:56:30;5.72;;;3.40;;
35114;SDS011;21292;52.416;13.046;2022-08-04T07:58:59;5.90;;;3.20;;
35114;SDS011;21292;52.416;13.046;2022-08-04T08:01:28;6.88;;;3.70;;
35114;SDS011;21292;52.416;13.046;2022-08-04T08:03:56;5.68;;;3.25;;
35114;SDS011;21292;52.416;13.046;2022-08-04T08:06:26;7.57;;;3.40;;
35114;SDS011;21292;52.416;13.046;2022-08-04T08:09:06;8.68;;;3.55;;
35114;SDS011;21292;52.416;13.046;2022-08-04T08:11:40;6.25;;;3.30;;
35114;SDS011;21292;52.416;13.046;2022-08-04T08:14:28;5.78;;;3.30;;
35114;SDS011;21292;52.416;13.046;2022-08-04T08:16:57;6.10;;;2.75;;
35114;SDS011;21292;52.416;13.046;2022-08-04T08:19:27;10.25;;;3.28;;
35114;SDS011;21292;52.416;13.046;2022-08-04T08:21:55;2.78;;;2.45;;
35114;SDS011;21292;52.416;13.046;2022-08-04T08:24:27;7.25;;;3.60;;
35114;SDS011;21292;52.416;13.046;2022-08-04T08:26:55;3.38;;;3.08;;
35114;SDS011;21292;52.416;13.046;2022-08-04T08:29:24;3.90;;;3.08;;
35114;SDS011;21292;52.416;13.046;2022-08-04T08:31:53;4.53;;;3.20;;
35114;SDS011;21292;52.416;13.046;2022-08-04T08:34:28;5.32;;;3.25;;
35114;SDS011;21292;52.416;13.046;2022-08-04T08:36:58;8.60;;;3.35;;
35114;SDS011;21292;52.416;13.046;2022-08-04T08:39:33;6.55;;;3.50;;
35114;SDS011;21292;52.416;13.046;2022-08-04T08:42:15;6.70;;;3.53;;
35114;SDS011;21292;52.416;13.046;2022-08-04T08:45:34;4.18;;;3.78;;
35114;SDS011;21292;52.416;13.046;2022-08-04T08:51:19;10.13;;;3.80;;
35114;SDS011;21292;52.416;13.046;2022-08-04T08:54:00;5.45;;;3.88;;
35114;SDS011;21292;52.416;13.046;2022-08-04T08:56:38;4.90;;;4.20;;
35114;SDS011;21292;52.416;13.046;2022-08-04T08:59:16;4.45;;;3.45;;
35114;SDS011;21292;52.416;13.046;2022-08-04T09:02:02;5.70;;;3.85;;
35114;SDS011;21292;52.416;13.046;2022-08-04T09:04:50;5.65;;;3.72;;
35114;SDS011;21292;52.416;13.046;2022-08-04T09:07:36;6.35;;;3.45;;
35114;SDS011;21292;52.416;13.046;2022-08-04T09:10:16;4.00;;;3.33;;
35114;SDS011;21292;52.416;13.046;2022-08-04T09:12:50;7.10;;;3.67;;
35114;SDS011;21292;52.416;13.046;2022-08-04T09:15:22;8.27;;;3.72;;
35114;SDS011;21292;52.416;13.046;2022-08-04T09:17:56;4.78;;;2.90;;
35114;SDS011;21292;52.416;13.046;2022-08-04T09:20:28;3.53;;;3.10;;
35114;SDS011;21292;52.416;13.046;2022-08-04T09:23:12;10.25;;;3.40;;
35114;SDS011;21292;52.416;13.046;2022-08-04T09:25:45;5.35;;;3.25;;
35114;SDS011;21292;52.416;13.046;2022-08-04T09:28:22;5.30;;;2.75;;
35114;SDS011;21292;52.416;13.046;2022-08-04T09:31:12;3.05;;;2.67;;
35114;SDS011;21292;52.416;13.046;2022-08-04T09:33:42;5.32;;;2.70;;
35114;SDS011;21292;52.416;13.046;2022-08-04T09:36:18;5.47;;;2.53;;
35114;SDS011;21292;52.416;13.046;2022-08-04T09:39:01;5.25;;;3.05;;
35114;SDS011;21292;52.416;13.046;2022-08-04T09:41:36;6.68;;;2.72;;
35114;SDS011;21292;52.416;13.046;2022-08-04T09:44:20;3.88;;;2.92;;
35114;SDS011;21292;52.416;13.046;2022-08-04T09:47:15;2.85;;;2.47;;
35114;SDS011;21292;52.416;13.046;2022-08-04T09:49:49;3.47;;;2.50;;
35114;SDS011;21292;52.416;13.046;2022-08-04T09:52:22;3.38;;;2.58;;
35114;SDS011;21292;52.416;13.046;2022-08-04T09:54:58;5.53;;;2.28;;
35114;SDS011;21292;52.416;13.046;2022-08-04T09:57:38;3.80;;;2.20;;
35114;SDS011;21292;52.416;13.046;2022-08-04T10:00:13;6.18;;;2.55;;
35114;SDS011;21292;52.416;13.046;2022-08-04T10:02:43;2.30;;;2.00;;
35114;SDS011;21292;52.416;13.046;2022-08-04T10:05:12;2.20;;;2.00;;
35114;SDS011;21292;52.416;13.046;2022-08-04T10:07:47;2.53;;;2.28;;
35114;SDS011;21292;52.416;13.046;2022-08-04T10:10:46;6.82;;;2.60;;
35114;SDS011;21292;52.416;13.046;2022-08-04T10:13:22;4.28;;;2.67;;
35114;SDS011;21292;52.416;13.046;2022-08-04T10:15:59;3.17;;;2.55;;
35114;SDS011;21292;52.416;13.046;2022-08-04T10:18:43;5.57;;;2.25;;
35114;SDS011;21292;52.416;13.046;2022-08-04T10:21:18;7.53;;;2.65;;
35114;SDS011;21292;52.416;13.046;2022-08-04T10:23:59;5.20;;;2.40;;
35114;SDS011;21292;52.416;13.046;2022-08-04T10:26:35;4.93;;;2.58;;
35114;SDS011;21292;52.416;13.046;2022-08-04T10:29:13;4.13;;;2.72;;
35114;SDS011;21292;52.416;13.046;2022-08-04T10:31:47;9.80;;;3.20;;
35114;SDS011;21292;52.416;13.046;2022-08-04T10:34:24;3.65;;;3.00;;
35114;SDS011;21292;52.416;13.046;2022-08-04T10:36:55;2.90;;;2.70;;
35114;SDS011;21292;52.416;13.046;2022-08-04T10:39:28;4.28;;;2.70;;
35114;SDS011;21292;52.416;13.046;2022-08-04T10:42:11;4.43;;;2.60;;
35114;SDS011;21292;52.416;13.046;2022-08-04T10:47:25;5.88;;;2.40;;
35114;SDS011;21292;52.416;13.046;2022-08-04T10:50:01;3.80;;;2.42;;
35114;SDS011;21292;52.416;13.046;2022-08-04T10:52:54;3.15;;;2.45;;
35114;SDS011;21292;52.416;13.046;2022-08-04T10:55:27;2.85;;;2.35;;
35114;SDS011;21292;52.416;13.046;2022-08-04T10:58:18;3.78;;;2.38;;
35114;SDS011;21292;52.416;13.046;2022-08-04T11:01:11;6.57;;;2.35;;
35114;SDS011;21292;52.416;13.046;2022-08-04T11:04:09;2.85;;;1.90;;
35114;SDS011;21292;52.416;13.046;2022-08-04T11:06:54;3.90;;;2.47;;
35114;SDS011;21292;52.416;13.046;2022-08-04T11:09:22;3.85;;;1.98;;
35114;SDS011;21292;52.416;13.046;2022-08-04T11:11:52;1.95;;;1.85;;
35114;SDS011;21292;52.416;13.046;2022-08-04T11:14:28;2.47;;;2.05;;
35114;SDS011;21292;52.416;13.046;2022-08-04T11:17:02;4.28;;;2.10;;
35114;SDS011;21292;52.416;13.046;2022-08-04T11:19:34;4.07;;;2.28;;
35114;SDS011;21292;52.416;13.046;2022-08-04T11:22:17;4.72;;;2.13;;
35114;SDS011;21292;52.416;13.046;2022-08-04T11:24:51;3.47;;;2.15;;
35114;SDS011;21292;52.416;13.046;2022-08-04T11:27:23;3.25;;;2.30;;
35114;SDS011;21292;52.416;13.046;2022-08-04T11:29:55;3.30;;;2.22;;
35114;SDS011;21292;52.416;13.046;2022-08-04T11:32:30;7.18;;;2.80;;
35114;SDS011;21292;52.416;13.046;2022-08-04T11:35:05;2.42;;;2.22;;
35114;SDS011;21292;52.416;13.046;2022-08-04T11:37:35;4.18;;;2.83;;
35114;SDS011;21292;52.416;13.046;2022-08-04T11:40:10;3.40;;;2.28;;
35114;SDS011;21292;52.416;13.046;2022-08-04T11:42:53;3.10;;;2.60;;
35114;SDS011;21292;52.416;13.046;2022-08-04T11:45:24;4.07;;;1.90;;
35114;SDS011;21292;52.416;13.046;2022-08-04T11:47:56;2.42;;;2.20;;
35114;SDS011;21292;52.416;13.046;2022-08-04T11:50:28;2.65;;;2.28;;
35114;SDS011;21292;52.416;13.046;2022-08-04T11:52:59;2.30;;;2.03;;
35114;SDS011;21292;52.416;13.046;2022-08-04T11:55:29;3.25;;;2.38;;
35114;SDS011;21292;52.416;13.046;2022-08-04T11:58:21;2.60;;;2.40;;
35114;SDS011;21292;52.416;13.046;2022-08-04T12:00:51;9.88;;;1.73;;
35114;SDS011;21292;52.416;13.046;2022-08-04T12:03:24;14.38;;;2.60;;
35114;SDS011;21292;52.416;13.046;2022-08-04T12:06:08;7.63;;;2.83;;
35114;SDS011;21292;52.416;13.046;2022-08-04T12:08:42;3.92;;;2.20;;
35114;SDS011;21292;52.416;13.046;2022-08-04T12:11:23;2.53;;;2.20;;
35114;SDS011;21292;52.416;13.046;2022-08-04T12:14:12;4.60;;;2.08;;
35114;SDS011;21292;52.416;13.046;2022-08-04T12:16:47;4.18;;;2.17;;
35114;SDS011;21292;52.416;13.046;2022-08-04T12:19:22;2.83;;;2.00;;
35114;SDS011;21292;52.416;13.046;2022-08-04T12:22:09;5.85;;;2.35;;
35114;SDS011;21292;52.416;13.046;2022-08-04T12:24:40;2.65;;;1.90;;
35114;SDS011;21292;52.416;13.046;2022-08-04T12:27:11;3.67;;;2.35;;
35114;SDS011;21292;52.416;13.046;2022-08-04T12:29:42;3.30;;;2.33;;
35114;SDS011;21292;52.416;13.046;2022-08-04T12:32:31;3.13;;;2.30;;
35114;SDS011;21292;52.416;13.046;2022-08-04T12:35:15;2.20;;;2.00;;
35114;SDS011;21292;52.416;13.046;2022-08-04T12:37:49;2.08;;;1.88;;
35114;SDS011;21292;52.416;13.046;2022-08-04T12:40:19;12.23;;;2.38;;
35114;SDS011;21292;52.416;13.046;2022-08-04T12:42:58;10.05;;;2.33;;
35114;SDS011;21292;52.416;13.046;2022-08-04T12:45:30;4.40;;;2.20;;
35114;SDS011;21292;52.416;13.046;2022-08-04T12:47:59;4.60;;;2.30;;
35114;SDS011;21292;52.416;13.046;2022-08-04T12:50:28;4.13;;;2.20;;
35114;SDS011;21292;52.416;13.046;2022-08-04T12:52:58;4.88;;;1.90;;
35114;SDS011;21292;52.416;13.046;2022-08-04T12:55:30;9.07;;;2.40;;
35114;SDS011;21292;52.416;13.046;2022-08-04T12:58:00;3.78;;;2.03;;
35114;SDS011;21292;52.416;13.046;2022-08-04T13:00:32;2.88;;;1.73;;
35114;SDS011;21292;52.416;13.046;2022-08-04T13:03:10;2.97;;;1.88;;
35114;SDS011;21292;52.416;13.046;2022-08-04T13:05:39;2.33;;;2.08;;
35114;SDS011;21292;52.416;13.046;2022-08-04T13:08:10;2.10;;;1.90;;
35114;SDS011;21292;52.416;13.046;2022-08-04T13:10:39;4.05;;;2.17;;
35114;SDS011;21292;52.416;13.046;2022-08-04T13:13:14;1.70;;;1.60;;
35114;SDS011;21292;52.416;13.046;2022-08-04T13:15:43;3.03;;;2.22;;
35114;SDS011;21292;52.416;13.046;2022-08-04T13:18:23;3.70;;;2.55;;
35114;SDS011;21292;52.416;13.046;2022-08-04T13:21:06;2.35;;;1.80;;
35114;SDS011;21292;52.416;13.046;2022-08-04T13:23:49;5.88;;;2.20;;
35114;SDS011;21292;52.416;13.046;2022-08-04T13:26:35;5.18;;;2.40;;
35114;SDS011;21292;52.416;13.046;2022-08-04T13:29:20;3.55;;;1.98;;
35114;SDS011;21292;52.416;13.046;2022-08-04T13:32:10;7.38;;;2.55;;
35114;SDS011;21292;52.416;13.046;2022-08-04T13:34:43;3.00;;;1.90;;
35114;SDS011;21292;52.416;13.046;2022-08-04T13:37:18;1.75;;;1.65;;
35114;SDS011;21292;52.416;13.046;2022-08-04T13:39:53;3.30;;;1.73;;
35114;SDS011;21292;52.416;13.046;2022-08-04T13:42:23;5.03;;;1.80;;
35114;SDS011;21292;52.416;13.046;2022-08-04T13:44:53;3.05;;;2.10;;
35114;SDS011;21292;52.416;13.046;2022-08-04T13:47:24;2.17;;;1.70;;
35114;SDS011;21292;52.416;13.046;2022-08-04T13:50:14;2.33;;;2.00;;
35114;SDS011;21292;52.416;13.046;2022-08-04T13:52:45;4.22;;;2.00;;
35114;SDS011;21292;52.416;13.046;2022-08-04T13:55:19;4.95;;;1.98;;
35114;SDS011;21292;52.416;13.046;2022-08-04T13:57:49;3.58;;;2.15;;
35114;SDS011;21292;52.416;13.046;2022-08-04T14:00:19;6.18;;;2.20;;
35114;SDS011;21292;52.416;13.046;2022-08-04T14:02:59;7.40;;;2.28;;
35114;SDS011;21292;52.416;13.046;2022-08-04T14:06:04;5.32;;;2.00;;
35114;SDS011;21292;52.416;13.046;2022-08-04T14:08:35;3.38;;;2.53;;
35114;SDS011;21292;52.416;13.046;2022-08-04T14:14:17;3.95;;;2.25;;
35114;SDS011;21292;52.416;13.046;2022-08-04T14:16:56;3.90;;;2.67;;
35114;SDS011;21292;52.416;13.046;2022-08-04T14:19:25;3.15;;;2.85;;
35114;SDS011;21292;52.416;13.046;2022-08-04T14:22:01;7.38;;;2.28;;
35114;SDS011;21292;52.416;13.046;2022-08-04T14:24:29;4.65;;;2.10;;
35114;SDS011;21292;52.416;13.046;2022-08-04T14:26:59;2.60;;;2.38;;
35114;SDS011;21292;52.416;13.046;2022-08-04T14:29:35;2.67;;;1.85;;
35114;SDS011;21292;52.416;13.046;2022-08-04T14:32:04;1.80;;;1.70;;
35114;SDS011;21292;52.416;13.046;2022-08-04T14:34:48;2.00;;;1.60;;
35114;SDS011;21292;52.416;13.046;2022-08-04T14:37:16;4.38;;;2.10;;
35114;SDS011;21292;52.416;13.046;2022-08-04T14:39:48;3.13;;;2.13;;
35114;SDS011;21292;52.416;13.046;2022-08-04T14:42:39;3.63;;;1.90;;
35114;SDS011;21292;52.416;13.046;2022-08-04T14:45:08;6.95;;;2.03;;
35114;SDS011;21292;52.416;13.046;2022-08-04T14:47:38;3.45;;;1.52;;
35114;SDS011;21292;52.416;13.046;2022-08-04T14:50:19;2.65;;;1.63;;
35114;SDS011;21292;52.416;13.046;2022-08-04T14:52:48;5.03;;;2.00;;
35114;SDS011;21292;52.416;13.046;2022-08-04T14:55:20;2.75;;;1.98;;
35114;SDS011;21292;52.416;13.046;2022-08-04T14:57:51;3.30;;;2.05;;
35114;SDS011;21292;52.416;13.046;2022-08-04T15:00:39;4.53;;;1.70;;
35114;SDS011;21292;52.416;13.046;2022-08-04T15:03:07;5.22;;;2.35;;
35114;SDS011;21292;52.416;13.046;2022-08-04T15:05:36;3.67;;;2.47;;
35114;SDS011;21292;52.416;13.046;2022-08-04T15:08:26;3.15;;;1.75;;
35114;SDS011;21292;52.416;13.046;2022-08-04T15:10:58;4.65;;;2.13;;
35114;SDS011;21292;52.416;13.046;2022-08-04T15:13:30;4.95;;;1.83;;
35114;SDS011;21292;52.416;13.046;2022-08-04T15:15:59;4.13;;;1.80;;
35114;SDS011;21292;52.416;13.046;2022-08-04T15:18:34;4.63;;;2.20;;
35114;SDS011;21292;52.416;13.046;2022-08-04T15:21:04;4.22;;;2.28;;
35114;SDS011;21292;52.416;13.046;2022-08-04T15:23:33;4.57;;;2.13;;
35114;SDS011;21292;52.416;13.046;2022-08-04T15:26:07;3.42;;;2.00;;
35114;SDS011;21292;52.416;13.046;2022-08-04T15:28:39;1.90;;;1.80;;
35114;SDS011;21292;52.416;13.046;2022-08-04T15:31:09;5.50;;;2.08;;
35114;SDS011;21292;52.416;13.046;2022-08-04T15:33:57;3.05;;;2.00;;
35114;SDS011;21292;52.416;13.046;2022-08-04T15:36:28;2.90;;;1.80;;
35114;SDS011;21292;52.416;13.046;2022-08-04T15:39:04;2.28;;;1.70;;
35114;SDS011;21292;52.416;13.046;2022-08-04T15:41:37;3.08;;;1.88;;
35114;SDS011;21292;52.416;13.046;2022-08-04T15:44:29;2.90;;;1.60;;
35114;SDS011;21292;52.416;13.046;2022-08-04T15:47:10;5.68;;;2.35;;
35114;SDS011;21292;52.416;13.046;2022-08-04T15:49:40;3.92;;;1.77;;
35114;SDS011;21292;52.416;13.046;2022-08-04T15:52:09;2.55;;;2.00;;
35114;SDS011;21292;52.416;13.046;2022-08-04T15:54:38;2.22;;;2.03;;
35114;SDS011;21292;52.416;13.046;2022-08-04T15:57:17;7.28;;;2.42;;
35114;SDS011;21292;52.416;13.046;2022-08-04T16:00:25;3.08;;;2.30;;